Time;durP1;ratioP1;P1;durP2;ratioP2;P2;SDS_P1;SDS_P2;PMS_P1;PMS_P2;Temp;Humidity;BMP_temperature;BMP_pressure;BME280_temperature;BME280_humidity;BME280_pressure;Samples;Min_cycle;Max_cycle;Signal;HPM_P1;HPM_P2
2022/07/02 00:01:56;;;;;;;3.77;2.33;;;;;;;13.46;100.00;100701.47;4998422;28;20218;-63
2022/07/02 00:04:27;;;;;;;3.27;1.90;;;;;;;13.39;100.00;100701.81;4994990;28;20262;-65
2022/07/02 00:06:53;;;;;;;5.57;2.20;;;;;;;13.32;100.00;100695.31;4995096;28;20296;-65
2022/07/02 00:09:19;;;;;;;2.37;1.60;;;;;;;13.31;100.00;100703.97;4993577;28;20171;-64
2022/07/02 00:11:47;;;;;;;2.67;1.67;;;;;;;13.19;100.00;100708.06;4996507;28;20230;-65
2022/07/02 00:14:15;;;;;;;2.80;1.80;;;;;;;13.16;100.00;100705.66;4995500;28;20215;-69
2022/07/02 00:16:46;;;;;;;1.83;1.53;;;;;;;13.10;100.00;100703.44;4991623;28;20184;-67
2022/07/02 00:19:16;;;;;;;3.92;2.15;;;;;;;13.29;100.00;100705.00;4987451;28;20437;-63
2022/07/02 00:21:42;;;;;;;3.07;1.50;;;;;;;13.18;100.00;100706.41;4979400;28;20297;-64
2022/07/02 00:24:09;;;;;;;3.20;2.03;;;;;;;13.16;100.00;100703.09;4981762;28;20655;-64
2022/07/02 00:26:39;;;;;;;2.00;1.70;;;;;;;13.15;100.00;100708.34;4977215;28;20809;-65
2022/07/02 00:29:24;;;;;;;6.00;1.83;;;;;;;13.00;100.00;100703.09;4999610;28;20184;-61
2022/07/02 00:31:49;;;;;;;2.10;1.90;;;;;;;13.03;100.00;100705.50;4977122;28;20222;-63
2022/07/02 00:34:16;;;;;;;5.83;2.10;;;;;;;12.99;100.00;100706.59;4971894;28;20305;-65
2022/07/02 00:36:43;;;;;;;3.53;1.93;;;;;;;13.02;100.00;100700.44;4985384;28;20188;-65
2022/07/02 00:39:08;;;;;;;2.17;1.80;;;;;;;12.93;100.00;100699.19;4988915;28;20278;-66
2022/07/02 00:41:34;;;;;;;5.53;1.60;;;;;;;12.89;100.00;100700.28;4981568;28;20301;-64
2022/07/02 00:44:00;;;;;;;4.33;2.20;;;;;;;12.84;100.00;100704.88;4993204;28;20234;-65
2022/07/02 00:46:28;;;;;;;2.97;1.90;;;;;;;12.80;100.00;100700.75;4983706;28;20603;-67
2022/07/02 00:48:54;;;;;;;2.10;1.90;;;;;;;12.78;100.00;100703.44;4994534;28;20202;-67
2022/07/02 00:51:19;;;;;;;2.13;1.92;;;;;;;13.18;100.00;100711.56;4986374;28;20464;-71
2022/07/02 00:53:44;;;;;;;2.00;1.90;;;;;;;12.99;100.00;100705.78;4984610;28;20596;-72
2022/07/02 00:56:10;;;;;;;3.93;2.07;;;;;;;12.87;100.00;100712.44;4984258;28;20184;-72
2022/07/02 00:58:35;;;;;;;2.87;1.93;;;;;;;12.79;100.00;100704.25;4990713;28;20627;-71
2022/07/02 01:01:01;;;;;;;2.40;1.80;;;;;;;12.79;100.00;100707.69;4984921;28;20218;-71
2022/07/02 01:03:26;;;;;;;3.80;2.00;;;;;;;12.73;100.00;100703.69;5000401;28;20208;-72
2022/07/02 01:05:53;;;;;;;1.90;1.80;;;;;;;12.71;100.00;100712.44;4995337;28;20698;-72
2022/07/02 01:11:07;;;;;;;2.93;2.40;;;;;;;12.60;100.00;100713.00;4991529;28;20296;-71
2022/07/02 01:13:33;;;;;;;2.67;1.80;;;;;;;12.55;100.00;100707.25;4999545;28;20183;-72
2022/07/02 01:15:59;;;;;;;2.53;2.03;;;;;;;12.52;100.00;100710.81;4991387;28;20203;-72
2022/07/02 01:18:25;;;;;;;2.80;2.10;;;;;;;12.50;100.00;100704.94;4991662;28;20191;-70
2022/07/02 01:20:50;;;;;;;4.13;2.00;;;;;;;12.46;100.00;100708.56;4983999;28;20754;-71
2022/07/02 01:23:15;;;;;;;3.50;1.90;;;;;;;12.40;100.00;100706.31;5002155;28;20323;-73
2022/07/02 01:25:49;;;;;;;2.77;1.80;;;;;;;12.31;100.00;100704.22;4992338;28;20337;-72
2022/07/02 01:28:14;;;;;;;3.27;1.90;;;;;;;12.32;100.00;100703.31;4991557;28;20179;-71
2022/07/02 01:30:40;;;;;;;2.20;1.83;;;;;;;12.30;100.00;100707.72;4983751;28;20238;-71
2022/07/02 01:33:05;;;;;;;2.33;2.13;;;;;;;12.27;100.00;100704.38;4983208;28;20183;-72
2022/07/02 01:35:30;;;;;;;2.07;1.87;;;;;;;12.24;100.00;100699.38;4992162;28;20199;-74
2022/07/02 01:37:56;;;;;;;3.13;2.20;;;;;;;12.18;100.00;100698.84;5007584;28;20274;-72
2022/07/02 01:40:21;;;;;;;2.93;1.93;;;;;;;12.16;100.00;100688.63;4983141;28;20206;-72
2022/07/02 01:42:46;;;;;;;3.37;2.00;;;;;;;12.13;100.00;100688.78;5005137;28;20186;-71
2022/07/02 01:45:12;;;;;;;2.43;2.23;;;;;;;12.19;100.00;100690.22;5000834;28;20210;-72
2022/07/02 01:47:37;;;;;;;2.07;1.90;;;;;;;12.11;100.00;100693.19;4990986;28;20179;-73
2022/07/02 01:50:03;;;;;;;7.70;2.47;;;;;;;12.07;100.00;100695.09;4987043;28;20547;-72
2022/07/02 01:52:28;;;;;;;3.00;2.10;;;;;;;12.11;100.00;100698.34;4989005;28;20669;-73
2022/07/02 01:54:53;;;;;;;2.23;1.70;;;;;;;12.07;100.00;100695.09;5003762;28;20542;-73
2022/07/02 01:57:19;;;;;;;2.57;2.00;;;;;;;12.07;100.00;100694.28;4990851;28;20269;-72
2022/07/02 01:59:44;;;;;;;2.20;2.00;;;;;;;12.05;100.00;100691.75;4991354;28;20187;-72
2022/07/02 02:02:10;;;;;;;2.57;1.70;;;;;;;12.02;100.00;100698.81;4983076;28;20254;-72
2022/07/02 02:04:35;;;;;;;3.17;2.20;;;;;;;12.03;100.00;100703.06;4992089;28;20245;-72
2022/07/02 02:07:02;;;;;;;2.37;2.17;;;;;;;11.96;100.00;100699.97;4992964;28;20190;-72
2022/07/02 02:09:27;;;;;;;2.43;1.80;;;;;;;11.94;100.00;100697.44;4991786;28;20332;-73
2022/07/02 02:11:53;;;;;;;2.53;2.33;;;;;;;11.93;100.00;100703.50;4996075;28;20238;-72
2022/07/02 02:14:18;;;;;;;4.30;2.20;;;;;;;11.90;100.00;100702.81;4992986;28;20178;-72
2022/07/02 02:16:43;;;;;;;2.97;2.00;;;;;;;11.86;100.00;100698.75;4992018;28;20321;-72
2022/07/02 02:19:09;;;;;;;2.20;2.00;;;;;;;11.91;100.00;100694.19;4990186;28;20183;-72
2022/07/02 02:21:35;;;;;;;3.10;2.30;;;;;;;11.93;100.00;100690.63;4983415;28;20286;-73
2022/07/02 02:24:00;;;;;;;2.63;2.17;;;;;;;11.83;100.00;100697.13;4990475;28;20208;-72
2022/07/02 02:26:26;;;;;;;4.93;2.30;;;;;;;11.87;100.00;100696.09;4990555;28;20212;-71
2022/07/02 02:28:53;;;;;;;3.37;2.00;;;;;;;11.93;100.00;100698.34;4987798;28;20631;-71
2022/07/02 02:31:19;;;;;;;3.67;2.00;;;;;;;11.89;100.00;100693.41;4982518;28;20369;-71
2022/07/02 02:33:44;;;;;;;2.17;1.97;;;;;;;11.86;100.00;100693.59;4996972;28;20699;-71
2022/07/02 02:36:10;;;;;;;2.17;2.00;;;;;;;11.81;100.00;100695.53;4991676;28;20187;-71
2022/07/02 02:38:38;;;;;;;3.60;2.10;;;;;;;11.84;100.00;100697.97;4991724;28;20189;-71
2022/07/02 02:41:07;;;;;;;3.77;2.07;;;;;;;11.79;100.00;100701.63;4989597;28;20229;-70
2022/07/02 02:43:34;;;;;;;4.77;1.80;;;;;;;11.75;100.00;100700.09;4993413;28;20202;-71
2022/07/02 02:46:01;;;;;;;3.30;2.20;;;;;;;11.75;100.00;100704.44;4998588;28;20508;-71
2022/07/02 02:48:27;;;;;;;1.60;1.50;;;;;;;11.64;100.00;100710.09;4987022;28;20250;-71
2022/07/02 02:50:52;;;;;;;2.43;2.03;;;;;;;11.43;100.00;100712.81;4977882;28;20236;-71
2022/07/02 02:53:18;;;;;;;4.73;2.53;;;;;;;11.37;100.00;100713.09;5004344;28;20184;-71
2022/07/02 02:55:43;;;;;;;3.43;1.53;;;;;;;11.34;100.00;100713.28;4991381;28;20211;-71
2022/07/02 02:58:08;;;;;;;5.13;1.90;;;;;;;11.35;100.00;100706.38;4990163;28;20185;-71
2022/07/02 03:00:34;;;;;;;2.40;1.90;;;;;;;11.32;100.00;100709.09;4971074;28;20317;-72
2022/07/02 03:02:59;;;;;;;2.93;2.13;;;;;;;11.35;100.00;100722.66;4978213;28;20207;-71
2022/07/02 03:05:24;;;;;;;3.60;2.10;;;;;;;11.24;100.00;100717.19;4992453;28;20210;-58
2022/07/02 03:07:50;;;;;;;5.43;1.90;;;;;;;11.38;100.00;100722.50;4991398;28;20215;-58
2022/07/02 03:10:15;;;;;;;6.10;1.60;;;;;;;11.33;100.00;100727.03;4982788;28;20219;-57
2022/07/02 03:12:41;;;;;;;3.30;1.90;;;;;;;11.40;100.00;100727.56;5004486;28;20187;-57
2022/07/02 03:15:07;;;;;;;4.63;2.03;;;;;;;11.45;100.00;100735.94;4982254;28;20230;-57
2022/07/02 03:17:32;;;;;;;4.13;1.57;;;;;;;11.46;100.00;100740.16;5005902;28;20197;-59
2022/07/02 03:19:57;;;;;;;2.80;1.73;;;;;;;11.55;100.00;100738.91;4990801;28;20187;-58
2022/07/02 03:22:22;;;;;;;2.20;1.60;;;;;;;11.59;100.00;100741.25;4998876;28;20245;-58
2022/07/02 03:24:48;;;;;;;4.13;1.87;;;;;;;11.63;100.00;100742.78;4994814;28;20663;-57
2022/07/02 03:27:13;;;;;;;1.60;1.50;;;;;;;11.62;100.00;100745.41;4988750;28;20180;-58
2022/07/02 03:29:38;;;;;;;4.20;1.70;;;;;;;11.49;100.00;100749.50;4986665;28;20566;-57
2022/07/02 03:32:04;;;;;;;3.23;1.70;;;;;;;11.38;100.00;100750.84;4963679;28;20211;-58
2022/07/02 03:34:29;;;;;;;2.67;1.50;;;;;;;11.43;100.00;100755.78;4994827;28;20199;-59
2022/07/02 03:36:54;;;;;;;4.47;1.70;;;;;;;11.53;100.00;100754.41;4994820;28;20266;-58
2022/07/02 03:39:20;;;;;;;2.20;1.50;;;;;;;11.55;100.00;100760.34;4994092;28;20187;-58
2022/07/02 03:41:45;;;;;;;3.53;1.73;;;;;;;11.54;100.00;100752.69;4997464;28;20313;-56
2022/07/02 03:44:10;;;;;;;3.70;1.37;;;;;;;11.50;100.00;100758.88;5005452;28;20241;-57
2022/07/02 03:46:36;;;;;;;2.30;1.57;;;;;;;11.46;100.00;100755.63;4995780;28;20180;-57
2022/07/02 03:49:01;;;;;;;4.60;1.77;;;;;;;11.56;100.00;100746.56;4994113;28;20275;-58
2022/07/02 03:51:27;;;;;;;4.00;1.57;;;;;;;11.73;100.00;100744.91;4994677;28;20237;-58
2022/07/02 03:53:52;;;;;;;3.40;2.10;;;;;;;11.76;100.00;100749.91;5001093;28;20187;-58
2022/07/02 03:56:17;;;;;;;5.50;1.83;;;;;;;11.84;100.00;100752.09;4994260;28;20179;-57
2022/07/02 03:58:42;;;;;;;2.77;1.73;;;;;;;12.01;100.00;100756.47;4993585;28;20187;-58
2022/07/02 04:01:08;;;;;;;4.10;1.43;;;;;;;12.05;100.00;100760.56;4992359;28;20313;-57
2022/07/02 04:03:36;;;;;;;3.50;2.20;;;;;;;12.01;100.00;100759.88;5000632;28;20293;-57
2022/07/02 04:06:02;;;;;;;4.43;1.50;;;;;;;12.15;100.00;100758.34;4996656;28;20196;-57
2022/07/02 04:08:27;;;;;;;2.27;1.57;;;;;;;12.07;100.00;100756.97;4994148;28;20176;-58
2022/07/02 04:10:53;;;;;;;2.73;1.50;;;;;;;12.13;100.00;100753.28;4989900;28;20229;-57
2022/07/02 04:13:18;;;;;;;3.07;1.50;;;;;;;12.17;100.00;100759.06;5002619;28;20671;-58
2022/07/02 04:15:43;;;;;;;1.97;1.80;;;;;;;12.18;100.00;100753.00;4980235;28;20259;-58
2022/07/02 04:18:09;;;;;;;2.27;1.50;;;;;;;12.22;100.00;100754.53;4993876;28;20631;-57
2022/07/02 04:20:34;;;;;;;1.50;1.20;;;;;;;12.22;100.00;100752.78;4987413;28;20250;-58
2022/07/02 04:23:00;;;;;;;2.43;1.63;;;;;;;12.25;100.00;100756.94;5004753;28;20256;-58
2022/07/02 04:25:25;;;;;;;3.63;1.57;;;;;;;12.30;100.00;100754.16;4988418;28;20658;-57
2022/07/02 04:27:50;;;;;;;3.00;1.47;;;;;;;12.34;100.00;100761.66;4980355;28;20594;-58
2022/07/02 04:30:15;;;;;;;1.70;1.60;;;;;;;12.52;100.00;100757.28;4984891;28;20186;-59
2022/07/02 04:32:41;;;;;;;2.23;1.53;;;;;;;12.54;100.00;100754.59;5006122;28;20638;-57
2022/07/02 04:35:06;;;;;;;4.30;1.50;;;;;;;12.55;100.00;100751.13;4993613;28;20297;-58
2022/07/02 04:37:32;;;;;;;3.57;1.60;;;;;;;12.57;100.00;100757.03;4993271;28;20179;-57
2022/07/02 04:39:57;;;;;;;4.47;1.60;;;;;;;12.50;100.00;100751.38;4993024;28;20206;-57
2022/07/02 04:42:23;;;;;;;3.60;1.70;;;;;;;12.35;100.00;100755.56;4998261;28;20234;-58
2022/07/02 04:44:48;;;;;;;4.03;1.47;;;;;;;12.47;100.00;100750.69;4999361;28;20206;-58
2022/07/02 04:47:13;;;;;;;1.57;1.07;;;;;;;12.54;100.00;100747.72;4993736;28;20191;-57
2022/07/02 04:49:39;;;;;;;3.23;1.50;;;;;;;12.70;100.00;100746.88;4992658;28;20237;-57
2022/07/02 04:52:05;;;;;;;1.70;1.23;;;;;;;12.78;100.00;100749.91;4998591;28;20728;-57
2022/07/02 04:54:31;;;;;;;2.60;1.20;;;;;;;12.96;100.00;100760.16;5005194;28;20194;-59
2022/07/02 04:56:57;;;;;;;2.10;1.10;;;;;;;13.04;100.00;100752.84;4992841;28;20195;-58
2022/07/02 04:59:22;;;;;;;3.33;1.40;;;;;;;13.31;100.00;100754.81;4992701;28;20183;-58
2022/07/02 05:01:48;;;;;;;2.27;1.30;;;;;;;13.32;99.90;100753.88;4996199;28;20230;-58
2022/07/02 05:04:13;;;;;;;3.67;1.23;;;;;;;13.51;98.75;100746.81;4994759;28;20211;-58
2022/07/02 05:06:39;;;;;;;7.57;4.57;;;;;;;13.51;97.86;100756.31;4995104;28;20237;-58
2022/07/02 05:09:04;;;;;;;3.50;2.40;;;;;;;13.67;97.69;100757.09;4992229;28;20270;-57
2022/07/02 05:11:30;;;;;;;2.30;1.50;;;;;;;13.68;96.08;100755.34;4993510;28;20238;-58
2022/07/02 05:13:55;;;;;;;1.80;1.47;;;;;;;13.79;96.85;100757.31;4996865;28;20920;-57
2022/07/02 05:16:21;;;;;;;1.40;1.30;;;;;;;13.99;94.09;100763.91;4993288;28;20190;-57
2022/07/02 05:18:46;;;;;;;4.13;1.40;;;;;;;14.04;93.23;100752.41;4992323;28;20190;-58
2022/07/02 05:21:12;;;;;;;1.50;1.10;;;;;;;14.25;92.12;100758.97;4991597;28;20701;-58
2022/07/02 05:23:38;;;;;;;3.27;1.17;;;;;;;14.17;92.13;100756.84;4984350;28;20204;-57
2022/07/02 05:26:03;;;;;;;2.90;1.20;;;;;;;14.22;92.62;100761.75;4992629;28;20313;-58
2022/07/02 05:28:29;;;;;;;2.70;1.10;;;;;;;14.39;92.51;100756.41;4992839;28;20191;-58
2022/07/02 05:30:54;;;;;;;4.33;1.57;;;;;;;14.56;93.45;100763.13;4988637;28;20316;-58
2022/07/02 05:33:19;;;;;;;2.67;1.27;;;;;;;14.81;92.72;100764.25;5000913;28;20274;-57
2022/07/02 05:35:46;;;;;;;3.00;1.30;;;;;;;14.94;90.68;100766.94;4992120;28;20281;-57
2022/07/02 05:38:11;;;;;;;3.23;1.20;;;;;;;15.21;92.21;100760.91;4992425;28;20187;-57
2022/07/02 05:40:36;;;;;;;3.10;1.20;;;;;;;15.62;89.34;100760.03;4986122;28;20253;-58
2022/07/02 05:43:02;;;;;;;2.07;1.10;;;;;;;15.65;85.05;100763.25;5003060;28;20176;-57
2022/07/02 05:45:27;;;;;;;1.50;1.00;;;;;;;15.92;80.74;100758.97;5001978;28;20270;-57
2022/07/02 05:47:52;;;;;;;3.20;1.00;;;;;;;16.14;79.29;100763.56;4992236;28;20194;-57
2022/07/02 05:50:18;;;;;;;2.73;1.20;;;;;;;16.01;79.21;100768.72;4983887;28;20199;-57
2022/07/02 05:52:43;;;;;;;2.00;1.10;;;;;;;16.19;78.10;100769.25;5006467;28;20195;-57
2022/07/02 05:55:08;;;;;;;2.30;0.90;;;;;;;16.37;79.86;100769.78;4991486;28;20194;-57
2022/07/02 05:57:34;;;;;;;1.70;1.20;;;;;;;16.43;74.57;100773.72;4991973;28;20175;-58
2022/07/02 05:59:59;;;;;;;1.03;0.80;;;;;;;16.69;74.60;100774.50;4985760;28;20270;-57
2022/07/02 06:02:24;;;;;;;2.43;1.10;;;;;;;17.05;71.31;100778.06;4981514;28;20240;-57
2022/07/02 06:04:50;;;;;;;3.87;1.10;;;;;;;17.43;70.70;100778.88;4972318;28;20386;-58
2022/07/02 06:09:59;;;;;;;2.20;1.20;;;;;;;18.54;64.09;100777.59;4971964;28;20331;-59
2022/07/02 06:12:25;;;;;;;2.87;1.30;;;;;;;19.30;59.82;100780.34;4982853;28;20295;-58
2022/07/02 06:14:50;;;;;;;2.67;1.77;;;;;;;19.97;55.58;100783.59;4972592;28;20188;-58
2022/07/02 06:17:16;;;;;;;2.90;1.47;;;;;;;21.14;51.08;100782.38;4973399;28;20238;-59
2022/07/02 06:19:42;;;;;;;2.53;1.00;;;;;;;22.08;47.52;100784.41;4988368;28;20188;-59
2022/07/02 06:22:08;;;;;;;2.67;1.00;;;;;;;22.05;46.62;100792.56;4994657;28;20234;-58
2022/07/02 06:24:33;;;;;;;2.67;0.83;;;;;;;23.02;43.69;100787.03;4991438;28;20326;-59
2022/07/02 06:26:58;;;;;;;2.73;1.20;;;;;;;22.94;43.32;100792.19;4991940;28;20186;-60
2022/07/02 06:29:23;;;;;;;3.13;0.90;;;;;;;24.21;41.06;100798.19;4977980;28;20191;-58
2022/07/02 06:31:49;;;;;;;2.83;0.93;;;;;;;24.80;39.27;100801.75;4983481;28;20223;-57
2022/07/02 06:34:14;;;;;;;2.85;1.73;;;;;;;25.54;38.17;100797.59;4993269;28;20607;-58
2022/07/02 06:36:40;;;;;;;2.25;0.90;;;;;;;25.79;36.96;100795.78;4991631;28;20623;-58
2022/07/02 06:39:05;;;;;;;3.33;1.02;;;;;;;25.69;37.30;100792.47;4990956;28;20289;-58
2022/07/02 06:44:14;;;;;;;2.40;1.10;;;;;;;26.59;36.54;100801.97;5000151;28;20232;-58
2022/07/02 06:46:39;;;;;;;2.05;0.85;;;;;;;27.28;34.36;100803.91;4991780;28;20914;-59
2022/07/02 06:49:05;;;;;;;3.55;1.30;;;;;;;27.97;33.67;100800.34;4991163;28;20270;-59
2022/07/02 06:51:30;;;;;;;3.63;1.30;;;;;;;28.26;33.12;100792.63;4992556;28;20552;-59
2022/07/02 06:54:00;;;;;;;2.97;1.38;;;;;;;28.12;33.62;100795.09;5006722;28;20182;-59
2022/07/02 06:56:28;;;;;;;2.30;1.38;;;;;;;27.47;34.90;100799.16;4994378;28;20179;-59
2022/07/02 06:58:53;;;;;;;1.52;1.42;;;;;;;27.36;35.35;100800.38;4994906;28;20187;-59
2022/07/02 07:01:18;;;;;;;4.15;1.63;;;;;;;27.48;35.41;100796.34;4974549;28;20223;-59
2022/07/02 07:03:44;;;;;;;4.30;1.50;;;;;;;27.81;34.74;100796.06;4994442;28;20266;-58
2022/07/02 07:06:09;;;;;;;2.72;1.50;;;;;;;29.06;33.02;100795.38;4997379;28;20190;-59
2022/07/02 07:08:34;;;;;;;4.78;1.73;;;;;;;29.32;32.88;100788.72;4995279;28;20487;-59
2022/07/02 07:11:00;;;;;;;3.45;1.77;;;;;;;29.64;32.83;100789.97;4992269;28;20227;-59
2022/07/02 07:13:25;;;;;;;3.20;1.98;;;;;;;30.19;31.76;100792.81;5003097;28;20278;-59
2022/07/02 07:15:50;;;;;;;6.05;2.75;;;;;;;30.03;31.75;100791.28;4986094;28;20288;-59
2022/07/02 07:18:16;;;;;;;3.40;2.08;;;;;;;28.77;34.11;100792.66;4990747;28;20206;-59
2022/07/02 07:20:41;;;;;;;3.88;2.53;;;;;;;28.77;34.66;100794.50;4987217;28;20238;-59
2022/07/02 07:23:06;;;;;;;4.00;2.78;;;;;;;28.76;34.28;100792.84;5005231;28;20661;-59
2022/07/02 07:25:32;;;;;;;4.60;2.33;;;;;;;27.97;35.59;100787.13;4994499;28;20234;-59
2022/07/02 07:27:57;;;;;;;5.28;2.85;;;;;;;27.59;35.58;100792.47;4994762;28;20564;-59
2022/07/02 07:30:22;;;;;;;3.92;3.15;;;;;;;28.03;35.40;100788.22;4964175;28;21113;-58
2022/07/02 07:32:48;;;;;;;6.20;2.40;;;;;;;28.74;35.30;100794.84;4979578;28;20258;-59
2022/07/02 07:35:13;;;;;;;6.07;2.03;;;;;;;29.03;34.79;100796.56;4994403;28;20243;-59
2022/07/02 07:37:38;;;;;;;4.95;2.30;;;;;;;30.01;33.37;100798.63;4992376;28;20199;-60
2022/07/02 07:40:05;;;;;;;4.65;2.03;;;;;;;30.41;31.91;100801.44;4981347;28;20217;-59
2022/07/02 07:42:31;;;;;;;4.38;2.25;;;;;;;29.88;32.85;100796.69;4995894;28;20184;-59
2022/07/02 07:44:57;;;;;;;5.93;2.08;;;;;;;30.05;32.32;100788.44;4991764;28;20211;-58
2022/07/02 07:47:22;;;;;;;2.42;1.73;;;;;;;28.94;34.57;100785.28;4992215;28;20228;-59
2022/07/02 07:49:47;;;;;;;5.30;2.00;;;;;;;29.40;34.45;100789.41;4990395;28;20179;-58
2022/07/02 07:52:13;;;;;;;6.13;2.20;;;;;;;28.30;35.13;100789.41;4988649;28;20223;-59
2022/07/02 07:54:38;;;;;;;7.63;2.60;;;;;;;29.82;32.49;100797.47;4990128;28;20495;-59
2022/07/02 07:57:04;;;;;;;6.95;2.30;;;;;;;29.86;32.68;100792.59;4992092;28;20286;-59
2022/07/02 07:59:29;;;;;;;4.85;2.72;;;;;;;29.42;33.11;100787.38;4991825;28;20179;-59
2022/07/02 08:01:55;;;;;;;10.63;2.75;;;;;;;30.50;31.49;100782.72;4983693;28;20230;-58
2022/07/02 08:04:20;;;;;;;4.18;2.30;;;;;;;30.53;31.28;100779.69;4988884;28;20268;-58
2022/07/02 08:06:45;;;;;;;3.60;1.88;;;;;;;30.34;31.73;100782.06;4992763;28;20184;-58
2022/07/02 08:09:11;;;;;;;4.55;1.85;;;;;;;31.53;31.10;100779.00;4991520;28;20179;-59
2022/07/02 08:11:36;;;;;;;4.45;2.17;;;;;;;31.35;29.74;100771.66;4984932;28;20227;-59
2022/07/02 08:14:01;;;;;;;4.47;2.60;;;;;;;32.07;28.50;100770.94;4988325;28;20283;-58
2022/07/02 08:16:26;;;;;;;4.25;2.15;;;;;;;31.73;28.48;100779.00;4989626;28;20179;-59
2022/07/02 08:18:52;;;;;;;5.78;1.92;;;;;;;31.84;29.53;100773.06;4979650;28;20192;-59
2022/07/02 08:21:18;;;;;;;4.70;2.20;;;;;;;32.50;28.51;100768.50;4987134;28;20238;-59
2022/07/02 08:23:43;;;;;;;4.18;1.77;;;;;;;31.88;28.57;100776.13;4998102;28;20225;-59
2022/07/02 08:26:08;;;;;;;4.72;2.28;;;;;;;32.04;28.63;100769.53;4990255;28;20562;-58
2022/07/02 08:28:35;;;;;;;4.10;1.90;;;;;;;30.52;30.30;100764.78;4987629;28;20194;-59
2022/07/02 08:31:01;;;;;;;4.22;1.60;;;;;;;31.75;27.96;100768.97;4984617;28;20227;-59
2022/07/02 08:33:26;;;;;;;2.50;1.70;;;;;;;32.70;27.52;100775.56;4990060;28;20187;-61
2022/07/02 08:35:51;;;;;;;2.83;1.48;;;;;;;32.02;26.56;100766.25;4992439;28;20222;-59
2022/07/02 08:38:17;;;;;;;2.50;1.70;;;;;;;31.01;29.02;100773.44;4982646;28;20207;-59
2022/07/02 08:40:43;;;;;;;2.25;1.33;;;;;;;32.64;26.64;100766.59;4987556;28;20744;-59
2022/07/02 08:43:11;;;;;;;1.92;1.45;;;;;;;32.33;25.56;100767.38;5000332;28;20179;-59
2022/07/02 08:45:37;;;;;;;2.47;1.08;;;;;;;32.54;26.04;100766.25;4991673;28;20199;-59
2022/07/02 08:48:05;;;;;;;3.40;1.27;;;;;;;32.99;25.54;100762.69;4985834;28;20175;-59
2022/07/02 08:50:31;;;;;;;4.18;1.10;;;;;;;30.00;27.44;100762.50;4977926;28;20704;-59
2022/07/02 08:52:56;;;;;;;4.43;1.38;;;;;;;29.27;29.24;100752.16;4991040;28;20193;-61
2022/07/02 08:55:22;;;;;;;1.60;1.25;;;;;;;29.64;29.54;100755.53;4992305;28;20191;-59
2022/07/02 08:57:49;;;;;;;3.53;1.58;;;;;;;30.84;27.19;100757.91;4991933;28;20270;-58
2022/07/02 09:00:16;;;;;;;2.80;1.38;;;;;;;30.62;26.54;100756.44;4995365;28;20183;-59
2022/07/02 09:02:43;;;;;;;8.27;1.17;;;;;;;30.84;25.22;100744.63;4990676;28;20202;-59
2022/07/02 09:05:10;;;;;;;3.72;1.08;;;;;;;31.45;26.36;100742.81;4991836;28;20574;-58
2022/07/02 09:07:37;;;;;;;2.25;1.15;;;;;;;30.59;26.29;100745.19;4988250;28;20814;-59
2022/07/02 09:10:03;;;;;;;5.47;1.20;;;;;;;30.54;25.54;100733.53;4980264;28;20187;-60
2022/07/02 09:12:29;;;;;;;1.25;0.85;;;;;;;31.81;25.31;100724.78;4996551;28;20685;-60
2022/07/02 09:14:55;;;;;;;5.32;1.30;;;;;;;33.26;23.92;100727.84;4986174;28;20725;-61
2022/07/02 09:17:20;;;;;;;2.88;1.02;;;;;;;34.38;21.36;100728.69;4987616;28;20191;-60
2022/07/02 09:19:45;;;;;;;6.35;1.20;;;;;;;35.13;21.75;100732.69;4989010;28;20191;-60
2022/07/02 09:22:12;;;;;;;2.72;1.15;;;;;;;34.97;20.59;100738.69;4995530;28;20354;-60
2022/07/02 09:24:42;;;;;;;3.25;0.90;;;;;;;36.30;19.32;100730.03;4975928;28;20262;-60
2022/07/02 09:27:09;;;;;;;2.08;1.15;;;;;;;36.16;18.89;100724.16;4973244;28;20183;-66
2022/07/02 09:29:49;;;;;;;1.65;0.82;;;;;;;32.92;21.19;100725.47;4983586;28;20203;-60
2022/07/02 09:32:15;;;;;;;2.45;0.80;;;;;;;34.70;20.23;100731.09;4981778;28;20370;-61
2022/07/02 09:34:43;;;;;;;1.77;1.05;;;;;;;34.43;18.54;100732.31;4989178;28;20237;-60
2022/07/02 09:37:19;;;;;;;2.63;0.90;;;;;;;33.98;18.76;100715.84;4988048;28;20224;-61
2022/07/02 09:39:46;;;;;;;1.23;0.70;;;;;;;34.26;19.16;100710.72;4989739;28;20191;-60
2022/07/02 09:42:23;;;;;;;2.83;0.82;;;;;;;31.45;22.74;100704.78;4992193;28;20317;-59
2022/07/02 09:44:48;;;;;;;3.33;1.33;;;;;;;32.64;22.36;100701.88;4978321;28;20207;-59
2022/07/02 09:47:14;;;;;;;2.33;0.77;;;;;;;32.36;21.95;100705.72;4975290;28;20195;-58
2022/07/02 09:49:47;;;;;;;1.80;0.88;;;;;;;33.92;20.23;100709.53;4973454;28;20233;-59
2022/07/02 09:52:17;;;;;;;2.08;1.05;;;;;;;33.75;20.97;100704.78;4980480;28;20222;-59
2022/07/02 09:54:43;;;;;;;3.75;0.77;;;;;;;34.06;21.02;100702.16;4989310;28;20628;-59
2022/07/02 09:57:10;;;;;;;1.60;0.93;;;;;;;33.34;20.13;100700.09;4989554;28;20627;-60
2022/07/02 09:59:37;;;;;;;1.42;0.90;;;;;;;33.41;20.53;100701.66;4991633;28;20187;-60
2022/07/02 10:02:02;;;;;;;1.23;0.63;;;;;;;34.50;19.29;100696.69;4996653;28;20218;-61
2022/07/02 10:04:29;;;;;;;3.10;1.17;;;;;;;34.87;19.80;100693.88;4991423;28;20229;-61
2022/07/02 10:06:54;;;;;;;1.77;0.70;;;;;;;34.80;18.88;100699.28;4994343;28;20271;-61
2022/07/02 10:09:23;;;;;;;1.95;0.93;;;;;;;35.10;18.70;100700.25;4990482;28;20186;-60
2022/07/02 10:11:49;;;;;;;1.70;0.57;;;;;;;36.41;19.62;100696.22;4984003;28;20589;-60
2022/07/02 10:14:18;;;;;;;1.00;0.50;;;;;;;37.47;16.60;100699.16;4993227;28;20195;-61
2022/07/02 10:16:44;;;;;;;1.40;0.75;;;;;;;34.59;18.28;100706.78;4990546;28;20195;-59
2022/07/02 10:19:10;;;;;;;0.60;0.50;;;;;;;31.83;19.35;100690.78;4981680;28;20196;-73
2022/07/02 10:21:38;;;;;;;4.22;1.27;;;;;;;30.51;22.14;100688.81;4992156;28;20235;-71
2022/07/02 10:24:05;;;;;;;2.20;0.70;;;;;;;33.14;20.69;100687.75;4974864;28;20284;-71
2022/07/02 10:26:32;;;;;;;3.13;0.85;;;;;;;30.74;21.69;100669.88;4976404;28;20675;-72
2022/07/02 10:29:02;;;;;;;2.33;0.73;;;;;;;32.08;20.11;100655.47;4971592;28;20180;-69
2022/07/02 10:31:32;;;;;;;1.33;0.65;;;;;;;29.59;21.56;100652.72;4973956;28;20268;-70
2022/07/02 10:34:45;;;;;;;2.28;0.70;;;;;;;31.99;20.90;100653.09;4982460;28;20199;-70
2022/07/02 10:37:11;;;;;;;1.60;0.40;;;;;;;31.82;19.49;100659.91;4986149;28;20275;-70
2022/07/02 10:39:42;;;;;;;0.43;0.40;;;;;;;33.45;18.39;100652.22;4975764;28;20266;-71
2022/07/02 10:42:08;;;;;;;4.90;0.60;;;;;;;32.90;18.88;100655.59;4993898;28;20676;-70
2022/07/02 10:44:44;;;;;;;2.78;0.45;;;;;;;32.44;19.34;100652.22;5000129;28;20211;-71
2022/07/02 10:47:25;;;;;;;0.70;0.43;;;;;;;31.48;21.22;100652.03;4995456;28;20179;-72
2022/07/02 10:50:00;;;;;;;1.05;0.70;;;;;;;27.43;24.94;100644.69;4981565;28;20218;-72
2022/07/02 10:52:58;;;;;;;1.45;0.60;;;;;;;27.76;24.28;100636.34;5000710;28;20230;-70
2022/07/02 10:55:30;;;;;;;0.80;0.60;;;;;;;27.29;25.85;100633.88;4984152;28;20355;-69
2022/07/02 10:58:00;;;;;;;0.98;0.70;;;;;;;26.99;28.02;100622.44;4992861;28;20231;-70
2022/07/02 11:00:28;;;;;;;0.70;0.50;;;;;;;26.54;25.90;100627.56;4972107;28;20487;-71
2022/07/02 11:02:55;;;;;;;0.73;0.60;;;;;;;26.33;27.12;100625.56;4993050;28;20286;-70
2022/07/02 11:05:21;;;;;;;1.17;0.52;;;;;;;26.12;27.15;100631.47;4995041;28;20210;-70
2022/07/02 11:07:46;;;;;;;2.90;0.57;;;;;;;26.10;27.62;100621.09;4992015;28;20195;-71
2022/07/02 11:10:11;;;;;;;1.90;0.95;;;;;;;25.98;28.12;100617.97;4982201;28;20227;-70
2022/07/02 11:12:50;;;;;;;1.63;0.75;;;;;;;25.76;30.12;100619.56;4992589;28;20200;-69
2022/07/02 11:15:17;;;;;;;0.93;0.60;;;;;;;25.13;30.22;100614.09;4982815;28;20191;-71
2022/07/02 11:17:47;;;;;;;3.47;0.80;;;;;;;25.33;30.96;100617.22;4992115;28;20195;-70
2022/07/02 11:20:12;;;;;;;0.93;0.82;;;;;;;25.81;29.71;100613.78;4982262;28;20230;-70
2022/07/02 11:22:38;;;;;;;1.20;0.88;;;;;;;25.90;29.60;100605.69;4975923;28;20183;-71
2022/07/02 11:25:05;;;;;;;2.33;0.60;;;;;;;25.75;29.13;100602.94;4992207;28;20294;-70
2022/07/02 11:27:30;;;;;;;2.38;1.08;;;;;;;26.37;30.54;100601.31;4992251;28;20179;-71